CheckWX is a tool to help pilots better visualize weather data.  It is not intended as a substitute for an official pre-flight weather briefing.

02:50:51 UTC

KAEX METAR
Alexandria International Airport
Alexandria, Louisiana, USA
Current

58 mins ago

KAEX 230153Z 18003KT 10SM CLR 25/21 A3003 RMK AO2 SLP171 T02500211
Observed
Sep-23 @ 01:53 UTC
Wind
  • 180° at 3 KTS
Visibility
10 SM
Flight Rules
VFR
Cloud Levels
  • Clear skies
Temperature
25°C / 77°F
Dewpoint
21°C / 70°F
Humidity
79%
Altimeter
30.03" Hg
Pressure
1016.92 hPa
Previous

2 hours ago

KAEX 230053Z 17005KT 10SM CLR 26/21 A3001 RMK AO2 SLP164 T02610211
Observed
Sep-23 @ 00:53 UTC
Wind
  • 170° at 5 KTS
Visibility
10 SM
Flight Rules
VFR
Cloud Levels
  • Clear skies
Temperature
26°C / 79°F
Dewpoint
21°C / 70°F
Humidity
74%
Altimeter
30.01" Hg
Pressure
1016.22 hPa
Previous

3 hours ago

KAEX 222353Z 19004KT 10SM CLR 29/19 A3000 RMK AO2 SLP161 T02890194 10328 20289 53000
Observed
Sep-22 @ 23:53 UTC
Wind
  • 190° at 4 KTS
Visibility
10 SM
Flight Rules
VFR
Cloud Levels
  • Clear skies
Temperature
29°C / 84°F
Dewpoint
19°C / 66°F
Heat Index
30°C / 86°F
Humidity
55%
Altimeter
30" Hg
Pressure
1015.92 hPa